createdAt,value
2023-02-03T00:02:06.699Z,16.37
2023-02-03T00:04:34.504Z,14.30
2023-02-03T00:07:02.011Z,17.90
2023-02-03T00:09:29.614Z,15.43
2023-02-03T00:11:57.164Z,16.77
2023-02-03T00:14:24.771Z,16.30
2023-02-03T00:16:53.661Z,15.67
2023-02-03T00:19:21.218Z,16.30
2023-02-03T00:21:48.761Z,14.30
2023-02-03T00:24:16.264Z,14.60
2023-02-03T00:26:44.481Z,15.40
2023-02-03T00:29:12.194Z,16.07
2023-02-03T00:31:40.006Z,15.00
2023-02-03T00:34:09.022Z,15.53
2023-02-03T00:36:37.235Z,14.20
2023-02-03T00:39:04.911Z,14.23
2023-02-03T00:41:32.598Z,13.93
2023-02-03T00:44:00.336Z,13.93
2023-02-03T00:46:27.838Z,14.30
2023-02-03T00:48:55.350Z,13.30
2023-02-03T00:51:24.229Z,12.70
2023-02-03T00:53:51.749Z,11.33
2023-02-03T00:56:19.341Z,10.47
2023-02-03T00:58:47.186Z,10.17
2023-02-03T01:01:14.985Z,11.33
2023-02-03T01:03:42.609Z,11.33
2023-02-03T01:06:11.987Z,9.80
2023-02-03T01:08:40.916Z,9.70
2023-02-03T01:11:09.643Z,9.30
2023-02-03T01:13:37.240Z,7.87
2023-02-03T01:16:07.879Z,6.67
2023-02-03T01:18:35.470Z,6.57
2023-02-03T01:21:06.946Z,6.17
2023-02-03T01:23:35.225Z,4.43
2023-02-03T01:26:08.746Z,4.40
2023-02-03T01:28:36.669Z,3.93
2023-02-03T01:31:12.812Z,4.60
2023-02-03T01:33:41.065Z,3.63
2023-02-03T01:36:09.340Z,3.40
2023-02-03T01:38:37.588Z,3.00
2023-02-03T01:41:07.919Z,4.73
2023-02-03T01:43:36.961Z,2.73
2023-02-03T01:46:08.753Z,2.47
2023-02-03T01:48:36.451Z,3.07
2023-02-03T01:51:05.350Z,3.00
2023-02-03T01:53:33.591Z,2.80
2023-02-03T01:56:02.156Z,2.63
2023-02-03T01:58:32.873Z,3.07
2023-02-03T02:01:00.611Z,2.53
2023-02-03T02:03:32.168Z,2.80
2023-02-03T02:06:04.266Z,2.50
2023-02-03T02:08:32.100Z,2.30
2023-02-03T02:11:00.671Z,2.27
2023-02-03T02:13:28.980Z,2.17
2023-02-03T02:16:01.544Z,2.53
2023-02-03T02:18:57.977Z,2.07
2023-02-03T02:21:43.031Z,2.60
2023-02-03T02:24:37.600Z,2.23
2023-02-03T02:27:08.833Z,1.87
2023-02-03T02:30:16.927Z,2.50
2023-02-03T02:33:01.673Z,2.37
2023-02-03T02:35:36.655Z,2.50
2023-02-03T02:38:06.476Z,2.70
2023-02-03T02:40:37.737Z,2.40
2023-02-03T02:43:10.213Z,2.90
2023-02-03T02:45:44.932Z,2.63
2023-02-03T02:48:18.563Z,2.47
2023-02-03T02:50:50.845Z,2.53
2023-02-03T02:53:20.264Z,2.70
2023-02-03T02:55:47.838Z,2.83
2023-02-03T02:58:16.941Z,3.67
2023-02-03T03:00:45.720Z,3.17
2023-02-03T03:03:18.989Z,2.47
2023-02-03T03:05:51.594Z,3.30
2023-02-03T03:08:21.593Z,3.53
2023-02-03T03:10:49.406Z,3.60
2023-02-03T03:13:21.874Z,3.77
2023-02-03T03:15:50.055Z,3.70
2023-02-03T03:18:20.479Z,4.67
2023-02-03T03:20:49.436Z,4.23
2023-02-03T03:23:20.385Z,5.80
2023-02-03T03:25:50.676Z,5.77
2023-02-03T03:28:24.081Z,6.00
2023-02-03T03:30:52.008Z,5.73
2023-02-03T03:33:21.400Z,6.87
2023-02-03T03:35:51.357Z,8.53
2023-02-03T03:38:22.944Z,7.77
2023-02-03T03:40:54.577Z,7.10
2023-02-03T03:43:25.256Z,8.83
2023-02-03T03:45:56.842Z,7.73
2023-02-03T03:48:29.062Z,8.93
2023-02-03T03:50:59.581Z,10.37
2023-02-03T03:53:28.704Z,8.13
2023-02-03T03:55:57.399Z,8.37
2023-02-03T03:58:29.104Z,7.90
2023-02-03T04:00:59.545Z,8.47
2023-02-03T04:03:33.158Z,7.57
2023-02-03T04:06:00.730Z,10.63
2023-02-03T04:08:28.221Z,8.07
2023-02-03T04:10:55.795Z,7.70
2023-02-03T04:13:23.283Z,8.33
2023-02-03T04:15:51.170Z,7.63
2023-02-03T04:18:18.947Z,8.03
2023-02-03T04:20:48.333Z,9.97
2023-02-03T04:23:15.868Z,6.60
2023-02-03T04:25:43.461Z,7.03
2023-02-03T04:28:11.084Z,8.37
2023-02-03T04:30:38.956Z,5.83
2023-02-03T04:33:06.600Z,5.20
2023-02-03T04:35:34.202Z,5.90
2023-02-03T04:38:03.098Z,5.00
2023-02-03T04:40:30.756Z,5.27
2023-02-03T04:42:58.330Z,5.30
2023-02-03T04:45:25.901Z,3.90
2023-02-03T04:47:54.688Z,4.63
2023-02-03T04:50:22.411Z,4.03
2023-02-03T04:52:49.938Z,3.33
2023-02-03T04:55:18.777Z,3.97
2023-02-03T04:57:46.300Z,5.70
2023-02-03T05:00:15.157Z,3.80
2023-02-03T05:02:42.732Z,3.70
2023-02-03T05:05:10.268Z,3.83
2023-02-03T05:07:37.784Z,4.17
2023-02-03T05:10:05.658Z,3.37
2023-02-03T05:12:35.628Z,3.20
2023-02-03T05:15:03.418Z,3.50
2023-02-03T05:17:30.998Z,5.17
2023-02-03T05:19:58.511Z,3.30
2023-02-03T05:22:26.035Z,4.03
2023-02-03T05:24:53.519Z,3.80
2023-02-03T05:27:21.065Z,3.60
2023-02-03T05:29:49.938Z,3.53
2023-02-03T05:32:17.430Z,4.37
2023-02-03T05:34:45.009Z,3.37
2023-02-03T05:37:12.547Z,3.83
2023-02-03T05:39:40.080Z,3.83
2023-02-03T05:42:06.609Z,3.50
2023-02-03T05:44:34.151Z,3.70
2023-02-03T05:47:03.057Z,3.67
2023-02-03T05:49:30.579Z,3.97
2023-02-03T05:51:58.135Z,3.97
2023-02-03T05:54:25.892Z,3.87
2023-02-03T05:56:53.588Z,3.67
2023-02-03T05:59:21.103Z,4.03
2023-02-03T06:01:48.698Z,4.30
2023-02-03T06:04:17.612Z,4.17
2023-02-03T06:06:45.177Z,4.57
2023-02-03T06:09:12.740Z,4.57
2023-02-03T06:11:42.655Z,5.10
2023-02-03T06:14:10.190Z,4.97
2023-02-03T06:16:37.772Z,4.50
2023-02-03T06:19:05.556Z,4.73
2023-02-03T06:21:34.388Z,4.57
2023-02-03T06:24:02.135Z,4.83
2023-02-03T06:26:29.636Z,4.63
2023-02-03T06:28:57.153Z,4.10
2023-02-03T06:31:24.797Z,4.40
2023-02-03T06:33:52.789Z,4.07
2023-02-03T06:36:20.331Z,3.93
2023-02-03T06:38:49.737Z,4.10
2023-02-03T06:41:17.320Z,3.67
2023-02-03T06:43:44.809Z,3.83
2023-02-03T06:46:12.595Z,3.67
2023-02-03T06:48:40.176Z,3.70
2023-02-03T06:51:07.807Z,4.07
2023-02-03T06:53:35.415Z,5.50
2023-02-03T06:56:04.564Z,3.97
2023-02-03T06:58:32.108Z,3.07
2023-02-03T07:00:59.619Z,3.97
2023-02-03T07:03:27.161Z,3.40
2023-02-03T07:05:55.063Z,3.63
2023-02-03T07:08:22.587Z,3.63
2023-02-03T07:10:54.564Z,3.50
2023-02-03T07:13:23.438Z,3.20
2023-02-03T07:15:51.173Z,3.40
2023-02-03T07:18:45.251Z,3.10
2023-02-03T07:21:09.208Z,3.23
2023-02-03T07:23:36.837Z,3.50
2023-02-03T07:26:05.901Z,3.07
2023-02-03T07:28:35.476Z,3.10
2023-02-03T07:31:04.692Z,3.03
2023-02-03T07:33:32.378Z,3.57
2023-02-03T07:36:00.819Z,3.60
2023-02-03T07:38:29.161Z,3.53
2023-02-03T07:40:57.448Z,3.27
2023-02-03T07:43:25.051Z,3.60
2023-02-03T07:45:53.910Z,4.17
2023-02-03T07:48:21.594Z,3.77
2023-02-03T07:50:50.745Z,3.83
2023-02-03T07:53:18.491Z,3.80
2023-02-03T07:55:46.109Z,3.67
2023-02-03T07:58:13.803Z,3.43
2023-02-03T08:00:41.371Z,3.90
2023-02-03T08:03:10.237Z,3.60
2023-02-03T08:05:37.807Z,3.53
2023-02-03T08:08:05.767Z,3.70
2023-02-03T08:10:33.441Z,3.47
2023-02-03T08:13:01.461Z,3.50
2023-02-03T08:15:29.127Z,3.33
2023-02-03T08:17:56.663Z,3.03
2023-02-03T08:20:25.644Z,3.60
2023-02-03T08:22:53.896Z,2.87
2023-02-03T08:25:22.711Z,3.97
2023-02-03T08:27:51.364Z,3.03
2023-02-03T08:30:19.240Z,3.73
2023-02-03T08:32:46.751Z,2.90
2023-02-03T08:35:14.315Z,2.77
2023-02-03T08:37:43.272Z,3.10
2023-02-03T08:40:12.222Z,4.73
2023-02-03T08:42:39.746Z,2.60
2023-02-03T08:45:08.287Z,2.73
2023-02-03T08:47:37.306Z,2.37
2023-02-03T08:50:05.331Z,2.70
2023-02-03T08:52:32.899Z,2.80
2023-02-03T08:55:01.775Z,2.50
2023-02-03T08:57:33.261Z,2.30
2023-02-03T09:00:01.369Z,2.90
2023-02-03T09:02:28.979Z,2.20
2023-02-03T09:04:56.585Z,2.50
2023-02-03T09:07:24.170Z,2.20
2023-02-03T09:09:51.714Z,2.50
2023-02-03T09:12:20.597Z,1.83
2023-02-03T09:14:48.118Z,2.27
2023-02-03T09:17:15.661Z,2.10
2023-02-03T09:19:43.172Z,2.03
2023-02-03T09:22:10.765Z,1.57
2023-02-03T09:24:38.476Z,2.00
2023-02-03T09:27:05.970Z,2.07
2023-02-03T09:29:34.858Z,2.23
2023-02-03T09:32:07.720Z,1.87
2023-02-03T09:34:35.350Z,1.70
2023-02-03T09:37:04.322Z,2.10
2023-02-03T09:39:32.052Z,3.53
2023-02-03T09:42:25.956Z,1.70
2023-02-03T09:45:00.281Z,2.10
2023-02-03T09:47:29.537Z,2.50
2023-02-03T09:49:59.280Z,1.90
2023-02-03T09:52:29.658Z,2.27
2023-02-03T09:55:02.241Z,2.30
2023-02-03T09:57:31.864Z,2.33
2023-02-03T10:00:03.135Z,2.10
2023-02-03T10:02:39.952Z,2.27
2023-02-03T10:05:14.249Z,2.33
2023-02-03T10:07:50.276Z,2.30
2023-02-03T10:10:22.654Z,2.37
2023-02-03T10:13:20.049Z,2.47
2023-02-03T10:16:01.638Z,2.50
2023-02-03T10:18:32.660Z,2.37
2023-02-03T10:21:03.875Z,2.03
2023-02-03T10:23:34.566Z,2.23
2023-02-03T10:26:03.515Z,2.30
2023-02-03T10:28:33.034Z,2.10
2023-02-03T10:31:04.633Z,2.40
2023-02-03T10:33:32.904Z,2.00
2023-02-03T10:36:05.853Z,2.57
2023-02-03T10:38:45.204Z,2.10
2023-02-03T10:41:12.856Z,2.20
2023-02-03T10:43:51.655Z,1.97
2023-02-03T10:46:22.836Z,1.83
2023-02-03T10:48:50.653Z,2.00
2023-02-03T10:51:22.154Z,1.70
2023-02-03T10:53:52.845Z,2.10
2023-02-03T10:56:23.946Z,2.03
2023-02-03T10:58:53.309Z,2.20
2023-02-03T11:01:23.520Z,3.20
2023-02-03T11:04:00.083Z,1.90
2023-02-03T11:06:28.713Z,1.87
2023-02-03T11:08:56.583Z,2.03
2023-02-03T11:11:26.352Z,1.70
2023-02-03T11:13:55.998Z,1.87
2023-02-03T11:16:25.610Z,1.37
2023-02-03T11:18:55.705Z,1.53
2023-02-03T11:21:24.644Z,1.70
2023-02-03T11:23:58.671Z,1.43
2023-02-03T11:26:28.715Z,1.63
2023-02-03T11:29:00.170Z,2.30
2023-02-03T11:31:30.336Z,1.80
2023-02-03T11:34:00.219Z,1.90
2023-02-03T11:36:29.619Z,2.27
2023-02-03T11:39:25.367Z,1.97
2023-02-03T11:41:53.013Z,1.77
2023-02-03T11:44:23.203Z,2.17
2023-02-03T11:46:55.883Z,1.57
2023-02-03T11:50:05.590Z,1.60
2023-02-03T11:52:46.896Z,4.30
2023-02-03T11:55:22.950Z,2.13
2023-02-03T11:58:00.003Z,2.03
2023-02-03T12:00:33.566Z,1.97
2023-02-03T12:03:19.820Z,2.00
2023-02-03T12:05:56.348Z,1.97
2023-02-03T12:08:33.566Z,2.23
2023-02-03T12:11:07.788Z,2.33
2023-02-03T12:13:44.976Z,1.63
2023-02-03T12:16:24.000Z,2.10
2023-02-03T12:19:00.100Z,2.33
2023-02-03T12:21:39.169Z,2.47
2023-02-03T12:24:11.729Z,1.60
2023-02-03T12:26:43.213Z,1.90
2023-02-03T12:29:14.484Z,2.27
2023-02-03T12:31:45.416Z,1.70
2023-02-03T12:34:19.503Z,1.87
2023-02-03T12:36:49.766Z,2.30
2023-02-03T12:39:21.193Z,2.20
2023-02-03T12:41:51.976Z,1.97
2023-02-03T12:44:22.531Z,2.23
2023-02-03T12:46:54.005Z,2.07
2023-02-03T12:49:30.219Z,1.70
2023-02-03T12:52:00.644Z,1.90
2023-02-03T12:54:34.398Z,1.70
2023-02-03T12:57:17.164Z,2.07
2023-02-03T12:59:45.204Z,1.90
2023-02-03T13:02:17.976Z,2.00
2023-02-03T13:04:51.605Z,1.93
2023-02-03T13:07:24.835Z,2.03
2023-02-03T13:09:57.889Z,2.30
2023-02-03T13:12:29.900Z,1.80
2023-02-03T13:15:01.391Z,1.70
2023-02-03T13:17:31.572Z,2.30
2023-02-03T13:20:04.187Z,1.60
2023-02-03T13:22:32.008Z,1.90
2023-02-03T13:25:06.087Z,1.60
2023-02-03T13:27:47.850Z,1.40
2023-02-03T13:30:34.084Z,1.80
2023-02-03T13:33:19.253Z,1.60
2023-02-03T13:35:56.446Z,1.43
2023-02-03T13:38:46.281Z,2.13
2023-02-03T13:41:20.127Z,1.67
2023-02-03T13:43:50.189Z,1.60
2023-02-03T13:46:24.249Z,2.27
2023-02-03T13:48:52.413Z,1.80
2023-02-03T13:51:23.420Z,1.13
2023-02-03T13:53:52.250Z,1.40
2023-02-03T13:56:22.459Z,1.30
2023-02-03T13:59:05.358Z,1.07
2023-02-03T14:01:37.055Z,1.20
2023-02-03T14:04:05.958Z,1.00
2023-02-03T14:07:02.117Z,0.90
2023-02-03T14:09:43.382Z,1.30
2023-02-03T14:12:35.793Z,0.83
2023-02-03T14:15:22.195Z,1.57
2023-02-03T14:17:58.401Z,2.70
2023-02-03T14:20:54.914Z,1.10
2023-02-03T14:23:28.658Z,1.10
2023-02-03T14:25:57.696Z,1.27
2023-02-03T14:28:31.104Z,1.03
2023-02-03T14:31:07.446Z,1.30
2023-02-03T14:33:57.179Z,1.57
2023-02-03T14:36:47.190Z,1.80
2023-02-03T14:39:55.144Z,1.10
2023-02-03T14:42:41.589Z,1.30
2023-02-03T14:45:19.032Z,1.40
2023-02-03T14:47:54.160Z,1.50
2023-02-03T14:50:30.071Z,1.17
2023-02-03T14:53:19.630Z,1.37
2023-02-03T14:55:56.384Z,1.40
2023-02-03T14:58:32.743Z,1.50
2023-02-03T15:01:01.641Z,1.00
2023-02-03T15:03:30.998Z,1.20
2023-02-03T15:06:03.920Z,1.00
2023-02-03T15:08:33.458Z,1.17
2023-02-03T15:11:06.194Z,1.00
2023-02-03T15:13:34.673Z,1.40
2023-02-03T15:16:04.247Z,3.07
2023-02-03T15:18:35.745Z,1.97
2023-02-03T15:21:04.025Z,1.20
2023-02-03T15:23:37.907Z,1.07
2023-02-03T15:26:13.808Z,1.80
2023-02-03T15:28:41.375Z,1.10
2023-02-03T15:31:21.189Z,1.03
2023-02-03T15:33:50.087Z,0.80
2023-02-03T15:36:20.639Z,0.80
2023-02-03T15:38:50.977Z,2.20
2023-02-03T15:41:23.441Z,0.90
2023-02-03T15:43:53.230Z,1.30
2023-02-03T15:46:27.866Z,0.80
2023-02-03T15:48:59.101Z,2.00
2023-02-03T15:51:29.926Z,0.83
2023-02-03T15:53:59.852Z,0.90
2023-02-03T15:56:35.620Z,0.70
2023-02-03T15:59:03.316Z,0.70
2023-02-03T16:01:31.512Z,0.90
2023-02-03T16:04:01.105Z,0.63
2023-02-03T16:06:35.813Z,0.80
2023-02-03T16:09:03.893Z,1.00
2023-02-03T16:11:35.284Z,0.90
2023-02-03T16:14:04.456Z,0.80
2023-02-03T16:16:36.651Z,0.80
2023-02-03T16:19:06.401Z,0.73
2023-02-03T16:21:42.745Z,0.87
2023-02-03T16:24:29.852Z,1.00
2023-02-03T16:27:22.743Z,1.43
2023-02-03T16:30:08.120Z,1.60
2023-02-03T16:32:53.556Z,1.37
2023-02-03T16:35:39.003Z,0.93
2023-02-03T16:38:24.758Z,1.13
2023-02-03T16:41:10.051Z,1.10
2023-02-03T16:43:56.737Z,1.10
2023-02-03T16:46:42.212Z,1.30
2023-02-03T16:49:27.996Z,1.10
2023-02-03T16:51:55.539Z,1.20
2023-02-03T16:54:23.053Z,1.20
2023-02-03T16:56:52.020Z,1.20
2023-02-03T16:59:20.878Z,1.23
2023-02-03T17:01:48.471Z,1.37
2023-02-03T17:04:16.348Z,1.57
2023-02-03T17:06:44.357Z,1.20
2023-02-03T17:09:11.980Z,1.60
2023-02-03T17:11:40.405Z,1.23
2023-02-03T17:14:07.980Z,1.57
2023-02-03T17:16:36.899Z,1.60
2023-02-03T17:19:04.442Z,1.40
2023-02-03T17:21:32.516Z,1.60
2023-02-03T17:24:00.350Z,1.20
2023-02-03T17:26:27.872Z,1.63
2023-02-03T17:28:55.425Z,1.20
2023-02-03T17:31:23.011Z,1.50
2023-02-03T17:33:53.404Z,1.87
2023-02-03T17:36:21.672Z,1.90
2023-02-03T17:55:24.714Z,2.30
2023-02-03T17:57:52.349Z,1.77
2023-02-03T18:00:20.485Z,1.90
2023-02-03T18:02:50.690Z,1.53
2023-02-03T18:05:19.710Z,1.50
2023-02-03T18:10:16.332Z,2.50
2023-02-03T18:12:44.244Z,1.80
2023-02-03T18:15:11.808Z,2.07
2023-02-03T18:17:39.548Z,2.13
2023-02-03T18:20:08.321Z,1.97
2023-02-03T18:22:37.762Z,2.20
2023-02-03T18:25:06.027Z,5.80
2023-02-03T18:27:33.556Z,3.43
2023-02-03T18:30:01.050Z,7.53
2023-02-03T18:32:28.692Z,2.57
2023-02-03T18:34:56.198Z,2.07
2023-02-03T18:37:23.715Z,2.47
2023-02-03T18:39:52.564Z,2.30
2023-02-03T18:42:20.082Z,2.90
2023-02-03T18:44:47.618Z,2.60
2023-02-03T18:47:15.144Z,3.80
2023-02-03T18:49:42.778Z,3.33
2023-02-03T18:52:10.376Z,2.80
2023-02-03T18:54:38.229Z,3.30
2023-02-03T18:57:07.125Z,2.80
2023-02-03T18:59:35.077Z,2.60
2023-02-03T19:02:02.843Z,3.23
2023-02-03T19:04:30.449Z,4.20
2023-02-03T19:06:58.026Z,4.13
2023-02-03T19:09:25.761Z,4.00
2023-02-03T19:11:53.373Z,3.67
2023-02-03T19:14:23.441Z,3.60
2023-02-03T19:16:52.985Z,3.40
2023-02-03T19:19:21.024Z,3.30
2023-02-03T19:21:49.560Z,3.10
2023-02-03T19:24:17.247Z,4.00
2023-02-03T19:26:44.762Z,4.37
2023-02-03T19:29:12.299Z,9.57
2023-02-03T19:31:41.632Z,3.20
2023-02-03T19:34:09.262Z,3.60
2023-02-03T19:36:38.379Z,5.47
2023-02-03T19:39:06.544Z,3.40
2023-02-03T19:41:36.484Z,2.90
2023-02-03T19:44:05.695Z,2.20
2023-02-03T19:46:37.008Z,4.30
2023-02-03T19:49:06.753Z,11.60
2023-02-03T19:51:34.856Z,4.93
2023-02-03T19:54:03.635Z,6.17
2023-02-03T19:56:31.156Z,6.27
2023-02-03T19:58:58.976Z,5.80
2023-02-03T20:01:27.013Z,4.23
2023-02-03T20:03:54.588Z,6.27
2023-02-03T20:06:23.679Z,7.70
2023-02-03T20:08:51.215Z,6.13
2023-02-03T20:11:19.530Z,3.80
2023-02-03T20:13:47.262Z,3.83
2023-02-03T20:16:14.924Z,4.33
2023-02-03T20:18:43.440Z,5.77
2023-02-03T20:21:10.990Z,2.90
2023-02-03T20:23:39.957Z,2.60
2023-02-03T20:26:07.453Z,4.67
2023-02-03T20:28:35.388Z,2.90
2023-02-03T20:31:03.380Z,3.03
2023-02-03T20:33:32.063Z,3.10
2023-02-03T20:35:59.762Z,4.53
2023-02-03T20:38:27.360Z,2.83
2023-02-03T20:40:57.327Z,3.20
2023-02-03T20:43:27.347Z,4.90
2023-02-03T20:45:55.764Z,3.93
2023-02-03T20:48:25.512Z,3.17
2023-02-03T20:50:53.318Z,3.27
2023-02-03T20:53:22.204Z,3.20
2023-02-03T20:55:50.188Z,7.03
2023-02-03T20:58:20.960Z,3.13
2023-02-03T21:00:49.519Z,7.07
2023-02-03T21:03:36.452Z,7.07
2023-02-03T21:06:05.570Z,7.43
2023-02-03T21:08:33.909Z,7.30
2023-02-03T21:11:01.471Z,5.40
2023-02-03T21:13:31.149Z,4.30
2023-02-03T21:16:02.598Z,8.50
2023-02-03T21:18:34.907Z,6.60
2023-02-03T21:21:03.214Z,8.40
2023-02-03T21:23:37.243Z,6.60
2023-02-03T21:26:16.336Z,7.00
2023-02-03T21:28:45.476Z,5.07
2023-02-03T21:31:25.508Z,10.13
2023-02-03T21:33:53.886Z,5.70
2023-02-03T21:36:23.009Z,6.43
2023-02-03T21:38:51.824Z,8.17
2023-02-03T21:41:20.889Z,9.90
2023-02-03T21:43:53.970Z,6.57
2023-02-03T21:46:26.394Z,11.43
2023-02-03T21:48:54.926Z,8.67
2023-02-03T21:51:23.680Z,10.77
2023-02-03T21:53:55.450Z,8.70
2023-02-03T21:56:25.235Z,4.77
2023-02-03T21:58:57.526Z,7.93
2023-02-03T22:01:26.103Z,7.57
2023-02-03T22:03:54.673Z,7.63
2023-02-03T22:06:30.079Z,10.07
2023-02-03T22:08:58.650Z,6.47
2023-02-03T22:11:27.345Z,8.53
2023-02-03T22:13:56.309Z,9.30
2023-02-03T22:16:24.008Z,6.87
2023-02-03T22:18:52.000Z,6.77
2023-02-03T22:21:20.064Z,7.70
2023-02-03T22:23:48.204Z,4.33
2023-02-03T22:26:16.999Z,7.43
2023-02-03T22:28:45.278Z,8.27
2023-02-03T22:31:14.465Z,7.90
2023-02-03T22:33:42.911Z,9.13
2023-02-03T22:36:11.014Z,15.80
2023-02-03T22:38:39.846Z,11.37
2023-02-03T22:41:07.970Z,8.93
2023-02-03T22:43:35.824Z,9.60
2023-02-03T22:46:04.823Z,6.33
2023-02-03T22:48:33.781Z,10.17
2023-02-03T22:51:01.418Z,10.70
2023-02-03T22:53:29.252Z,7.23
2023-02-03T22:55:56.873Z,10.87
2023-02-03T22:58:24.401Z,12.33
2023-02-03T23:00:51.920Z,11.90
2023-02-03T23:03:19.669Z,11.30
2023-02-03T23:05:48.572Z,7.07
2023-02-03T23:08:16.185Z,10.47
2023-02-03T23:10:43.741Z,11.10
2023-02-03T23:13:11.306Z,7.67
2023-02-03T23:15:38.877Z,7.87
2023-02-03T23:18:06.539Z,9.40
2023-02-03T23:20:34.218Z,9.37
2023-02-03T23:23:03.064Z,10.00
2023-02-03T23:25:30.587Z,10.27
2023-02-03T23:27:58.123Z,5.73
2023-02-03T23:30:25.784Z,7.70
2023-02-03T23:32:53.302Z,14.50
2023-02-03T23:35:38.422Z,7.33
2023-02-03T23:38:07.277Z,9.57
2023-02-03T23:40:34.833Z,10.53
2023-02-03T23:43:02.409Z,12.00
2023-02-03T23:45:30.161Z,11.33
2023-02-03T23:47:57.754Z,8.07
2023-02-03T23:50:25.290Z,10.87
2023-02-03T23:52:52.822Z,11.10
2023-02-03T23:55:22.055Z,9.60
2023-02-03T23:57:49.642Z,10.53
